createdAt,value
2023-04-09T00:02:10.862Z,2.70
2023-04-09T00:04:39.565Z,2.70
2023-04-09T00:07:08.212Z,2.70
2023-04-09T00:09:37.022Z,2.60
2023-04-09T00:12:07.224Z,2.60
2023-04-09T00:14:35.925Z,2.80
2023-04-09T00:17:07.520Z,2.90
2023-04-09T00:19:36.174Z,2.80
2023-04-09T00:22:04.796Z,2.80
2023-04-09T00:24:35.837Z,2.80
2023-04-09T00:27:07.945Z,2.70
2023-04-09T00:29:36.924Z,2.60
2023-04-09T00:32:05.669Z,2.70
2023-04-09T00:34:34.371Z,2.70
2023-04-09T00:37:03.058Z,2.70
2023-04-09T00:39:33.443Z,2.70
2023-04-09T00:42:03.700Z,2.70
2023-04-09T00:44:33.878Z,2.70
2023-04-09T00:47:05.588Z,2.60
2023-04-09T00:49:34.708Z,2.80
2023-04-09T00:52:03.539Z,2.80
2023-04-09T00:54:32.378Z,2.80
2023-04-09T00:57:03.226Z,2.80
2023-04-09T00:59:34.018Z,2.80
2023-04-09T01:02:02.827Z,2.80
2023-04-09T01:04:31.931Z,2.80
2023-04-09T01:07:06.824Z,2.90
2023-04-09T01:09:40.716Z,2.70
2023-04-09T01:12:21.377Z,2.70
2023-04-09T01:15:03.006Z,2.70
2023-04-09T01:17:36.099Z,2.70
2023-04-09T01:20:09.927Z,2.80
2023-04-09T01:22:51.991Z,2.70
2023-04-09T01:25:34.895Z,2.60
2023-04-09T01:28:25.001Z,2.60
2023-04-09T01:31:02.327Z,2.60
2023-04-09T01:33:32.597Z,2.70
2023-04-09T01:36:02.218Z,2.60
2023-04-09T01:38:30.847Z,2.60
2023-04-09T01:41:01.497Z,2.60
2023-04-09T01:43:33.400Z,2.60
2023-04-09T01:46:03.777Z,2.60
2023-04-09T01:51:09.847Z,2.60
2023-04-09T01:53:38.485Z,2.60
2023-04-09T01:56:13.240Z,2.70
2023-04-09T02:01:21.284Z,2.50
2023-04-09T02:03:55.823Z,2.50
2023-04-09T02:06:31.348Z,2.50
2023-04-09T02:09:04.200Z,2.30
2023-04-09T02:11:39.042Z,2.20
2023-04-09T02:14:11.413Z,2.20
2023-04-09T02:16:40.872Z,2.30
2023-04-09T02:19:09.665Z,2.30
2023-04-09T02:21:38.300Z,2.30
2023-04-09T02:24:07.397Z,2.20
2023-04-09T02:26:36.131Z,2.30
2023-04-09T02:29:09.368Z,2.30
2023-04-09T02:31:39.437Z,2.30
2023-04-09T02:34:08.403Z,2.20
2023-04-09T02:36:38.611Z,2.20
2023-04-09T02:39:07.200Z,2.10
2023-04-09T02:41:36.024Z,2.10
2023-04-09T02:44:04.871Z,2.10
2023-04-09T02:46:33.624Z,2.00
2023-04-09T02:49:05.964Z,2.00
2023-04-09T02:51:36.580Z,2.00
2023-04-09T02:54:07.829Z,2.00
2023-04-09T02:56:37.690Z,2.00
2023-04-09T02:59:08.661Z,2.00
2023-04-09T03:01:37.703Z,2.00
2023-04-09T03:04:08.322Z,2.00
2023-04-09T03:06:37.104Z,2.00
2023-04-09T03:09:05.777Z,2.00
2023-04-09T03:11:34.432Z,2.00
2023-04-09T03:14:03.166Z,2.00
2023-04-09T03:16:31.741Z,2.00
2023-04-09T03:19:02.740Z,2.00
2023-04-09T03:21:35.678Z,1.90
2023-04-09T03:24:06.778Z,1.90
2023-04-09T03:26:37.393Z,1.90
2023-04-09T03:29:15.340Z,1.90
2023-04-09T03:31:44.239Z,1.90
2023-04-09T03:34:13.207Z,1.90
2023-04-09T03:36:44.548Z,1.90
2023-04-09T03:39:22.152Z,1.80
2023-04-09T03:41:50.870Z,1.80
2023-04-09T03:44:20.279Z,1.90
2023-04-09T03:47:04.764Z,2.00
2023-04-09T03:49:33.475Z,2.00
2023-04-09T03:52:13.576Z,2.00
2023-04-09T03:54:46.146Z,1.90
2023-04-09T03:57:19.786Z,1.90
2023-04-09T03:59:54.582Z,1.90
2023-04-09T04:02:27.713Z,1.90
2023-04-09T04:05:01.737Z,2.00
2023-04-09T04:07:37.448Z,2.00
2023-04-09T04:10:16.238Z,2.00
2023-04-09T04:12:49.812Z,2.00
2023-04-09T04:15:25.618Z,2.10
2023-04-09T04:17:58.428Z,2.10
2023-04-09T04:20:40.756Z,2.20
2023-04-09T04:23:15.467Z,2.20
2023-04-09T04:25:53.292Z,2.20
2023-04-09T04:28:31.293Z,2.30
2023-04-09T04:31:15.819Z,2.30
2023-04-09T04:33:48.668Z,2.40
2023-04-09T04:36:20.629Z,2.50
2023-04-09T04:38:54.473Z,2.50
2023-04-09T04:41:42.560Z,2.50
2023-04-09T04:44:21.429Z,2.60
2023-04-09T04:46:54.560Z,2.70
2023-04-09T04:49:23.534Z,2.90
2023-04-09T04:51:53.446Z,2.80
2023-04-09T04:54:24.653Z,2.80
2023-04-09T04:57:02.984Z,2.80
2023-04-09T04:59:41.955Z,2.90
2023-04-09T05:02:19.592Z,3.00
2023-04-09T05:05:06.815Z,3.20
2023-04-09T05:07:42.623Z,3.10
2023-04-09T05:10:15.238Z,3.20
2023-04-09T05:12:47.984Z,3.20
2023-04-09T05:15:27.294Z,3.30
2023-04-09T05:17:59.816Z,3.30
2023-04-09T05:20:38.860Z,3.40
2023-04-09T05:23:12.720Z,3.40
2023-04-09T05:25:58.640Z,3.50
2023-04-09T05:29:00.421Z,3.70
2023-04-09T05:31:30.335Z,3.80
2023-04-09T05:34:05.215Z,3.90
2023-04-09T05:36:47.004Z,4.00
2023-04-09T05:39:16.187Z,4.10
2023-04-09T05:41:47.620Z,4.10
2023-04-09T05:44:32.218Z,4.20
2023-04-09T05:47:06.999Z,4.30
2023-04-09T05:49:44.984Z,4.40
2023-04-09T05:52:19.945Z,4.50
2023-04-09T05:54:48.794Z,4.60
2023-04-09T05:57:27.966Z,4.70
2023-04-09T06:00:08.618Z,4.90
2023-04-09T06:02:49.298Z,5.00
2023-04-09T06:05:23.988Z,5.20
2023-04-09T06:07:55.702Z,5.30
2023-04-09T06:10:32.439Z,5.40
2023-04-09T06:13:04.259Z,5.50
2023-04-09T06:15:33.006Z,5.60
2023-04-09T06:18:03.815Z,5.50
2023-04-09T06:20:32.800Z,5.50
2023-04-09T06:23:06.788Z,5.50
2023-04-09T06:25:40.752Z,5.40
2023-04-09T06:28:10.884Z,5.50
2023-04-09T06:30:42.667Z,5.50
2023-04-09T06:33:16.446Z,5.50
2023-04-09T06:35:47.475Z,5.60
2023-04-09T06:38:18.263Z,5.70
2023-04-09T06:40:47.352Z,5.70
2023-04-09T06:43:17.467Z,4.60
2023-04-09T06:45:58.683Z,5.90
2023-04-09T06:48:31.396Z,5.90
2023-04-09T06:51:01.094Z,5.90
2023-04-09T06:53:32.714Z,5.80
2023-04-09T06:56:04.134Z,5.70
2023-04-09T06:58:34.430Z,5.80
2023-04-09T07:01:07.826Z,5.80
2023-04-09T07:03:36.721Z,5.70
2023-04-09T07:06:08.565Z,5.70
2023-04-09T07:08:39.298Z,5.70
2023-04-09T07:11:08.755Z,5.80
2023-04-09T07:13:41.887Z,5.80
2023-04-09T07:16:20.812Z,5.80
2023-04-09T07:18:49.627Z,5.90
2023-04-09T07:21:18.291Z,5.90
2023-04-09T07:23:51.642Z,5.90
2023-04-09T07:26:20.617Z,5.90
2023-04-09T07:28:59.698Z,5.90
2023-04-09T07:31:28.463Z,5.90
2023-04-09T07:33:58.853Z,5.90
2023-04-09T07:36:28.071Z,5.90
2023-04-09T07:38:59.068Z,5.90
2023-04-09T07:41:30.864Z,5.80
2023-04-09T07:44:04.114Z,5.80
2023-04-09T07:46:37.180Z,5.70
2023-04-09T07:49:06.014Z,5.70
2023-04-09T07:51:37.197Z,5.80
2023-04-09T07:54:08.995Z,5.80
2023-04-09T07:56:48.023Z,5.80
2023-04-09T07:59:18.222Z,5.80
2023-04-09T08:01:47.215Z,5.90
2023-04-09T08:04:22.381Z,6.00
2023-04-09T08:06:54.013Z,6.10
2023-04-09T08:09:29.599Z,6.10
2023-04-09T08:14:33.102Z,6.30
2023-04-09T08:19:35.091Z,6.50
2023-04-09T08:27:13.109Z,6.80
2023-04-09T08:29:49.526Z,6.90
2023-04-09T08:34:58.686Z,7.00
2023-04-09T08:37:29.797Z,7.00
2023-04-09T08:40:03.949Z,7.10
2023-04-09T08:42:37.890Z,7.10
2023-04-09T08:45:11.854Z,7.20
2023-04-09T08:47:53.361Z,7.20
2023-04-09T08:50:22.261Z,7.20
2023-04-09T08:52:52.798Z,7.30
2023-04-09T08:55:31.114Z,7.30
2023-04-09T08:57:59.777Z,7.30
2023-04-09T09:00:32.878Z,7.30
2023-04-09T09:03:09.283Z,7.30
2023-04-09T09:05:43.176Z,7.30
2023-04-09T09:08:27.163Z,7.40
2023-04-09T09:10:58.525Z,7.50
2023-04-09T09:13:29.486Z,7.60
2023-04-09T09:16:16.808Z,7.70
2023-04-09T09:18:46.349Z,7.70
2023-04-09T09:21:16.579Z,7.70
2023-04-09T09:23:46.080Z,7.80
2023-04-09T09:26:16.661Z,7.80
2023-04-09T09:28:47.670Z,7.90
2023-04-09T09:31:24.384Z,7.90
2023-04-09T09:34:01.317Z,7.90
2023-04-09T09:36:37.045Z,8.10
2023-04-09T09:39:10.368Z,8.20
2023-04-09T09:41:39.414Z,8.20
2023-04-09T09:44:13.563Z,8.20
2023-04-09T09:46:49.384Z,8.20
2023-04-09T09:49:22.158Z,8.30
2023-04-09T09:51:58.174Z,8.20
2023-04-09T09:54:34.570Z,8.10
2023-04-09T09:57:08.832Z,8.00
2023-04-09T09:59:46.137Z,8.00
2023-04-09T10:02:23.288Z,8.00
2023-04-09T10:04:56.150Z,8.00
2023-04-09T10:07:28.111Z,8.00
2023-04-09T10:10:02.249Z,7.90
2023-04-09T10:12:31.522Z,7.90
2023-04-09T10:15:05.176Z,8.00
2023-04-09T10:17:39.052Z,8.10
2023-04-09T10:20:19.495Z,8.20
2023-04-09T10:22:54.398Z,8.00
2023-04-09T10:25:27.138Z,8.10
2023-04-09T10:28:16.746Z,8.00
2023-04-09T10:30:45.746Z,8.10
2023-04-09T10:33:17.366Z,8.10
2023-04-09T10:35:52.608Z,8.20
2023-04-09T10:38:36.061Z,8.20
2023-04-09T10:41:22.591Z,8.30
2023-04-09T10:43:53.673Z,8.40
2023-04-09T10:46:29.985Z,8.50
2023-04-09T10:49:14.262Z,8.50
2023-04-09T10:51:45.328Z,8.30
2023-04-09T10:54:38.993Z,8.20
2023-04-09T10:57:18.343Z,8.20
2023-04-09T10:59:54.126Z,8.30
2023-04-09T11:02:57.960Z,8.40
2023-04-09T11:05:35.653Z,8.40
2023-04-09T11:08:09.767Z,8.50
2023-04-09T11:10:39.853Z,8.60
2023-04-09T11:13:12.299Z,8.80
2023-04-09T11:15:41.377Z,8.90
2023-04-09T11:18:12.335Z,8.80
2023-04-09T11:20:44.799Z,8.90
2023-04-09T11:23:15.638Z,8.80
2023-04-09T11:25:51.164Z,8.90
2023-04-09T11:28:20.945Z,9.10
2023-04-09T11:30:55.473Z,9.10
2023-04-09T11:33:50.644Z,9.00
2023-04-09T11:36:24.643Z,9.00
2023-04-09T11:38:56.410Z,9.10
2023-04-09T11:41:35.217Z,9.20
2023-04-09T11:44:05.314Z,9.00
2023-04-09T11:46:40.664Z,9.00
2023-04-09T11:49:11.842Z,8.90
2023-04-09T11:54:43.436Z,8.60
2023-04-09T11:57:15.183Z,8.50
2023-04-09T11:59:45.904Z,8.60
2023-04-09T12:20:09.191Z,8.70
2023-04-09T12:22:41.538Z,8.80
2023-04-09T12:25:13.824Z,8.80
2023-04-09T12:32:46.162Z,9.20
2023-04-09T12:35:18.670Z,9.40
2023-04-09T12:37:50.147Z,9.40
2023-04-09T12:40:20.683Z,9.30
2023-04-09T12:42:49.683Z,9.10
2023-04-09T12:45:21.562Z,8.90
2023-04-09T12:47:51.354Z,8.80
2023-04-09T12:50:20.095Z,8.70
2023-04-09T12:52:50.247Z,8.70
2023-04-09T12:55:29.481Z,8.80
2023-04-09T12:58:00.208Z,9.00
2023-04-09T13:00:31.104Z,8.80
2023-04-09T13:03:00.137Z,8.70
2023-04-09T13:05:31.655Z,8.60
2023-04-09T13:08:04.278Z,8.70
2023-04-09T13:10:34.716Z,8.70
2023-04-09T13:13:05.660Z,8.70
2023-04-09T13:15:37.138Z,8.70
2023-04-09T13:18:05.974Z,8.60
2023-04-09T13:20:34.757Z,8.70
2023-04-09T13:23:05.044Z,8.70
2023-04-09T13:25:37.447Z,8.70
2023-04-09T13:28:13.996Z,8.60
2023-04-09T13:30:43.865Z,8.60
2023-04-09T13:33:23.359Z,8.50
2023-04-09T13:35:52.202Z,8.60
2023-04-09T13:38:24.588Z,8.60
2023-04-09T13:43:32.714Z,8.40
2023-04-09T13:46:05.186Z,8.30
2023-04-09T13:48:35.065Z,8.30
2023-04-09T13:51:03.846Z,8.30
2023-04-09T13:53:33.958Z,8.40
2023-04-09T13:56:11.342Z,8.40
2023-04-09T13:58:40.053Z,8.30
2023-04-09T14:01:08.916Z,8.20
2023-04-09T14:03:38.658Z,8.20
2023-04-09T14:06:07.759Z,8.10
2023-04-09T14:08:38.057Z,7.90
2023-04-09T14:11:07.264Z,8.00
2023-04-09T14:13:35.848Z,8.00
2023-04-09T14:16:04.737Z,8.10
2023-04-09T14:18:33.397Z,8.20
2023-04-09T14:21:02.065Z,8.30
2023-04-09T14:23:30.661Z,8.30
2023-04-09T14:26:00.734Z,8.40
2023-04-09T14:28:29.421Z,8.40
2023-04-09T14:30:58.059Z,8.30
2023-04-09T14:33:26.828Z,8.20
2023-04-09T14:35:55.462Z,8.10
2023-04-09T14:38:25.070Z,8.00
2023-04-09T14:40:54.105Z,8.00
2023-04-09T14:43:24.193Z,8.10
2023-04-09T14:45:54.529Z,8.20
2023-04-09T14:48:23.105Z,8.30
2023-04-09T14:50:51.945Z,8.20
2023-04-09T14:53:20.877Z,8.10
2023-04-09T14:55:49.550Z,8.00
2023-04-09T14:58:18.149Z,8.00
2023-04-09T15:00:48.116Z,8.10
2023-04-09T15:03:16.966Z,8.20
2023-04-09T15:05:46.213Z,8.20
2023-04-09T15:08:15.028Z,8.30
2023-04-09T15:10:43.700Z,8.30
2023-04-09T15:13:12.421Z,8.40
2023-04-09T15:15:44.199Z,8.50
2023-04-09T15:18:14.163Z,8.50
2023-04-09T15:20:44.621Z,8.50
2023-04-09T15:23:13.413Z,8.60
2023-04-09T15:25:41.962Z,8.60
2023-04-09T15:28:10.638Z,8.60
2023-04-09T15:30:39.372Z,8.60
2023-04-09T15:33:08.112Z,8.70
2023-04-09T15:35:38.295Z,8.70
2023-04-09T15:38:07.029Z,8.70
2023-04-09T15:40:35.717Z,8.60
2023-04-09T15:43:04.304Z,8.50
2023-04-09T15:45:32.930Z,8.40
2023-04-09T15:48:01.743Z,8.20
2023-04-09T15:50:30.428Z,8.10
2023-04-09T15:53:00.527Z,8.00
2023-04-09T15:55:29.310Z,7.80
2023-04-09T16:32:53.514Z,7.00
2023-04-09T16:35:22.544Z,6.90
2023-04-09T16:37:52.010Z,6.70
2023-04-09T16:40:24.506Z,6.60
2023-04-09T16:42:54.610Z,6.40
2023-04-09T16:45:23.396Z,6.40
2023-04-09T16:47:54.761Z,6.20
2023-04-09T16:50:23.411Z,6.10
2023-04-09T16:52:52.016Z,6.00
2023-04-09T16:55:21.741Z,5.90
2023-04-09T16:57:50.333Z,5.90
2023-04-09T17:00:20.972Z,5.90
2023-04-09T17:02:50.005Z,5.90
2023-04-09T17:05:18.796Z,5.90
2023-04-09T17:07:47.631Z,5.90
2023-04-09T17:10:16.558Z,5.90
2023-04-09T17:12:46.088Z,5.90
2023-04-09T17:15:14.675Z,5.90
2023-04-09T17:17:45.827Z,5.80
2023-04-09T17:20:14.872Z,5.90
2023-04-09T17:22:43.379Z,5.90
2023-04-09T17:25:12.464Z,5.80
2023-04-09T17:27:42.162Z,5.80
2023-04-09T17:30:11.154Z,5.80
2023-04-09T17:32:40.673Z,5.80
2023-04-09T17:35:11.446Z,5.80
2023-04-09T17:37:39.968Z,5.80
2023-04-09T17:40:10.239Z,5.80
2023-04-09T17:42:38.815Z,5.80
2023-04-09T17:45:08.616Z,5.80
2023-04-09T17:47:37.276Z,5.80
2023-04-09T17:50:07.590Z,5.70
2023-04-09T17:52:38.846Z,5.70
2023-04-09T17:55:08.800Z,5.70
2023-04-09T17:57:37.541Z,5.60
2023-04-09T18:00:07.379Z,5.60
2023-04-09T18:02:37.561Z,5.40
2023-04-09T18:05:07.442Z,5.40
2023-04-09T18:07:38.769Z,5.30
2023-04-09T18:10:08.183Z,5.30
2023-04-09T18:12:36.758Z,5.30
2023-04-09T18:15:06.067Z,5.30
2023-04-09T18:17:34.699Z,5.20
2023-04-09T18:20:03.476Z,5.20
2023-04-09T18:22:32.118Z,5.20
2023-04-09T18:25:02.101Z,5.20
2023-04-09T18:27:30.738Z,5.10
2023-04-09T18:29:59.479Z,5.10
2023-04-09T18:32:28.086Z,5.10
2023-04-09T18:34:57.104Z,5.10
2023-04-09T18:37:26.548Z,5.00
2023-04-09T18:39:55.322Z,5.00
2023-04-09T18:42:25.477Z,5.00
2023-04-09T18:44:54.252Z,5.00
2023-04-09T18:47:22.857Z,5.00
2023-04-09T18:49:51.751Z,5.00
2023-04-09T18:52:22.886Z,4.90
2023-04-09T18:54:51.571Z,4.90
2023-04-09T18:57:20.424Z,4.80
2023-04-09T18:59:50.332Z,4.80
2023-04-09T19:02:19.013Z,4.70
2023-04-09T19:04:47.988Z,4.70
2023-04-09T19:07:17.222Z,4.70
2023-04-09T19:09:46.170Z,4.80
2023-04-09T19:12:14.751Z,4.90
2023-04-09T19:14:43.389Z,4.90
2023-04-09T19:17:13.492Z,5.00
2023-04-09T19:19:42.075Z,5.00
2023-04-09T19:22:10.718Z,5.00
2023-04-09T19:24:39.292Z,5.00
2023-04-09T19:27:10.026Z,5.10
2023-04-09T19:29:38.765Z,5.10
2023-04-09T19:32:09.383Z,5.10
2023-04-09T19:34:39.353Z,5.10
2023-04-09T19:37:07.957Z,5.10
2023-04-09T19:39:36.491Z,5.10
2023-04-09T19:42:05.123Z,5.10
2023-04-09T19:44:33.718Z,5.10
2023-04-09T19:47:02.344Z,5.10
2023-04-09T19:49:30.887Z,5.00
2023-04-09T19:52:01.043Z,5.00
2023-04-09T19:54:29.670Z,5.00
2023-04-09T19:56:58.237Z,5.10
2023-04-09T19:59:27.439Z,5.00
2023-04-09T20:01:57.474Z,5.00
2023-04-09T20:04:26.267Z,5.00
2023-04-09T20:06:55.146Z,5.00
2023-04-09T20:09:26.591Z,5.00
2023-04-09T20:11:55.140Z,5.00
2023-04-09T20:14:23.724Z,5.00
2023-04-09T20:16:52.363Z,5.00
2023-04-09T20:19:22.342Z,5.00
2023-04-09T20:21:50.916Z,5.10
2023-04-09T20:24:19.458Z,5.10
2023-04-09T20:26:49.432Z,5.00
2023-04-09T20:29:19.296Z,5.00
2023-04-09T20:31:47.904Z,5.00
2023-04-09T20:34:16.460Z,4.90
2023-04-09T20:36:45.093Z,4.90
2023-04-09T20:39:13.809Z,4.90
2023-04-09T20:41:42.397Z,4.90
2023-04-09T20:44:12.278Z,4.90
2023-04-09T20:46:40.906Z,4.90
2023-04-09T20:49:09.475Z,4.90
2023-04-09T20:51:38.149Z,4.90
2023-04-09T20:54:06.832Z,4.90
2023-04-09T20:56:35.445Z,4.90
2023-04-09T20:59:04.069Z,4.90
2023-04-09T21:01:34.154Z,4.90
2023-04-09T21:04:02.968Z,4.90
2023-04-09T21:06:31.876Z,4.90
2023-04-09T21:09:00.464Z,4.80
2023-04-09T21:11:30.818Z,4.80
2023-04-09T21:13:59.655Z,4.90
2023-04-09T21:16:29.943Z,4.90
2023-04-09T21:19:07.061Z,4.90
2023-04-09T21:21:35.801Z,4.90
2023-04-09T21:24:05.177Z,4.90
2023-04-09T21:26:45.316Z,4.90
2023-04-09T21:29:20.088Z,4.90
2023-04-09T21:31:49.329Z,4.90
2023-04-09T21:34:19.346Z,4.90
2023-04-09T21:36:48.680Z,4.90
2023-04-09T21:39:17.232Z,4.90
2023-04-09T21:41:45.959Z,4.90
2023-04-09T21:44:14.687Z,4.90
2023-04-09T21:46:43.343Z,4.90
2023-04-09T21:49:13.507Z,4.90
2023-04-09T21:51:51.806Z,4.90
2023-04-09T21:54:23.116Z,4.90
2023-04-09T21:56:53.435Z,4.90
2023-04-09T21:59:24.089Z,4.90
2023-04-09T22:02:03.812Z,4.90
2023-04-09T22:04:38.075Z,4.90
2023-04-09T22:07:19.795Z,4.90
2023-04-09T22:09:52.402Z,4.90
2023-04-09T22:12:24.598Z,4.90
2023-04-09T22:14:58.955Z,4.90
2023-04-09T22:17:37.285Z,4.90
2023-04-09T22:20:10.611Z,4.80
2023-04-09T22:22:43.798Z,4.80
2023-04-09T22:25:15.127Z,4.80
2023-04-09T22:27:54.661Z,4.80
2023-04-09T22:30:28.657Z,4.70
2023-04-09T22:33:10.289Z,4.70
2023-04-09T22:35:47.017Z,4.70
2023-04-09T22:38:18.260Z,4.70
2023-04-09T22:40:49.120Z,4.60
2023-04-09T22:43:18.441Z,4.60
2023-04-09T22:45:52.159Z,4.60
2023-04-09T22:48:22.009Z,4.60
2023-04-09T22:50:51.534Z,4.60
2023-04-09T22:53:21.912Z,4.60
2023-04-09T22:55:52.096Z,4.50
2023-04-09T22:58:20.803Z,4.50
2023-04-09T23:00:51.725Z,4.50
2023-04-09T23:03:20.522Z,4.50
2023-04-09T23:05:49.641Z,4.40
2023-04-09T23:08:18.267Z,4.40
2023-04-09T23:10:48.306Z,4.40
2023-04-09T23:13:18.146Z,4.40
2023-04-09T23:15:46.849Z,4.40
2023-04-09T23:18:15.424Z,4.30
2023-04-09T23:20:43.960Z,4.20
2023-04-09T23:23:13.057Z,4.20
2023-04-09T23:25:41.631Z,4.20
2023-04-09T23:28:11.574Z,4.10
2023-04-09T23:30:40.141Z,4.20
2023-04-09T23:33:08.729Z,4.10
2023-04-09T23:35:37.398Z,4.10
2023-04-09T23:38:06.171Z,4.00
2023-04-09T23:40:34.736Z,4.00
2023-04-09T23:43:03.360Z,4.00
2023-04-09T23:45:33.271Z,4.00
2023-04-09T23:48:02.495Z,3.90
2023-04-09T23:50:31.085Z,3.90
2023-04-09T23:53:01.132Z,3.90
2023-04-09T23:55:29.760Z,3.90
2023-04-09T23:57:58.370Z,3.80
